Aeroporto :
LOGIN :

Iscrizione | Disclaimer

   EN    FR    IT 

 










Sommario :    VFR   VFR Marginale   IFR   IFR Intensivo   IFR Molto Intensivo
Visibilità : 
Base nubi : 
>= 8 km
>= 3000ft
5 / 8 km
1000 / 3000 ft
1500m / 5 km
500 / 1000 ft
800 / 1500m
200 / 500 ft
< 800m
< 200 ft
Simboli :   Temporali  Nebbia  Neve Forte  Precipitazioni Forti  Vento > 20 kt
SIGMETs :   Varie  Temporali  Ghiacco  Turbolenza  Onda orograficha  Ceneri Vulcaniche







- Altitudine del aeroporto : 53 ft
- Codice IATA : AGP


LEMG - Malaga

ULTIMO METAR :
  • 212330Z 34003KT 280V020 9999 FEW030 09/03 Q1022 NOSIG

METARs OBSOLETI :
  • 212300Z 30005KT 260V340 9999 FEW030 09/02 Q1022 NOSIG
  • 212230Z 31012KT 9999 FEW030 10/03 Q1021 NOSIG
  • 212200Z 30010KT 9999 FEW030 10/03 Q1021 NOSIG
  • 212130Z 30009KT 9999 FEW030 10/03 Q1021 NOSIG
  • 212100Z 28011KT 9999 FEW030 11/02 Q1021 NOSIG
  • 212030Z 27011KT 9999 FEW030 12/02 Q1021 NOSIG

TAF TAF LEMG
Valido dal 22 a 00 ore il 23 a 00 ore UTC


212300Z 2200/2224 28009KT CAVOK TX16/2214Z TN07/2206Z
TEMPO 2212/2217 31015G25KT
Nessun NOTAM noto per questo aeroporto.



MetMap, La meteo Aeronautica in un colpo d'occhio ! - Copyright ORBIFLY Dicembre 2007 - Disclaimer

ORBIFLY MET'MAP TEAM :

Programmazione e sviluppo : Alexandra Zaïnal
Concezione e sviluppo : Baudouin d'Aumeries
Co-Programmazione e sviluppo : Marc-Olivier Méhu
Supporto tecnico e logistico : Manuel Goepfert
Aiuto per la traduzione : Arnaldo La Scala

Contatto : metmap@orbifly.com




FONTI E CREDITI :

   NOAA